createdAt,value
2023-05-05T00:00:52.748Z,0.42
2023-05-05T00:01:52.738Z,0.39
2023-05-05T00:02:52.777Z,0.38
2023-05-05T00:03:52.778Z,0.39
2023-05-05T00:04:52.651Z,0.42
2023-05-05T00:05:52.644Z,0.45
2023-05-05T00:06:53.590Z,0.49
2023-05-05T00:07:52.625Z,0.50
2023-05-05T00:08:52.619Z,0.50
2023-05-05T00:09:52.608Z,0.50
2023-05-05T00:10:52.636Z,0.51
2023-05-05T00:11:52.617Z,0.51
2023-05-05T00:12:52.681Z,0.50
2023-05-05T00:13:52.577Z,0.50
2023-05-05T00:14:52.567Z,0.50
2023-05-05T00:15:52.567Z,0.50
2023-05-05T00:16:52.596Z,0.50
2023-05-05T00:17:52.667Z,0.50
2023-05-05T00:18:52.545Z,0.50
2023-05-05T00:19:52.531Z,0.50
2023-05-05T00:20:52.525Z,0.50
2023-05-05T00:21:52.520Z,0.50
2023-05-05T00:22:52.519Z,0.50
2023-05-05T00:23:52.508Z,0.51
2023-05-05T00:24:52.495Z,0.51
2023-05-05T00:25:52.480Z,0.50
2023-05-05T00:26:52.533Z,0.51
2023-05-05T00:27:52.474Z,0.51
2023-05-05T00:28:52.474Z,0.51
2023-05-05T00:29:52.455Z,0.51
2023-05-05T00:30:52.512Z,0.50
2023-05-05T00:31:52.466Z,0.51
2023-05-05T00:32:52.518Z,0.50
2023-05-05T00:33:52.496Z,0.51
2023-05-05T00:34:52.520Z,0.50
2023-05-05T00:35:52.539Z,0.50
2023-05-05T00:36:52.527Z,0.50
2023-05-05T00:37:52.566Z,0.50
2023-05-05T00:38:52.565Z,0.51
2023-05-05T00:39:52.598Z,0.50
2023-05-05T00:40:52.616Z,0.51
2023-05-05T00:41:52.666Z,0.50
2023-05-05T00:42:52.678Z,0.50
2023-05-05T00:43:52.650Z,0.51
2023-05-05T00:44:52.643Z,0.51
2023-05-05T00:45:52.661Z,0.51
2023-05-05T00:46:52.696Z,0.50
2023-05-05T00:47:52.729Z,0.51
2023-05-05T00:48:52.703Z,0.51
2023-05-05T00:49:52.672Z,0.51
2023-05-05T00:50:52.674Z,0.50
2023-05-05T00:51:52.646Z,0.51
2023-05-05T00:52:52.708Z,0.50
2023-05-05T00:53:52.673Z,0.50
2023-05-05T00:54:52.695Z,0.51
2023-05-05T00:55:52.688Z,0.51
2023-05-05T00:56:52.672Z,0.50
2023-05-05T00:57:52.681Z,0.51
2023-05-05T00:58:52.713Z,0.50
2023-05-05T00:59:52.751Z,0.51
2023-05-05T01:00:52.793Z,0.50
2023-05-05T01:01:52.798Z,0.51
2023-05-05T01:02:52.982Z,0.50
2023-05-05T01:03:52.982Z,0.50
2023-05-05T01:04:52.789Z,0.50
2023-05-05T01:05:52.818Z,0.50
2023-05-05T01:06:52.815Z,0.51
2023-05-05T01:07:52.828Z,0.50
2023-05-05T01:08:52.844Z,0.51
2023-05-05T01:10:01.026Z,0.50
2023-05-05T01:10:52.917Z,0.50
2023-05-05T01:11:52.846Z,0.51
2023-05-05T01:12:52.899Z,0.51
2023-05-05T01:13:52.839Z,0.50
2023-05-05T01:14:52.852Z,0.51
2023-05-05T01:15:52.838Z,0.50
2023-05-05T01:16:52.808Z,0.51
2023-05-05T01:17:52.864Z,0.50
2023-05-05T01:18:52.796Z,0.51
2023-05-05T01:19:52.786Z,0.50
2023-05-05T01:20:52.785Z,0.51
2023-05-05T01:21:52.777Z,0.51
2023-05-05T01:22:52.777Z,0.51
2023-05-05T01:23:52.768Z,0.51
2023-05-05T01:24:52.753Z,0.51
2023-05-05T01:25:52.770Z,0.50
2023-05-05T01:26:52.751Z,0.51
2023-05-05T01:27:52.734Z,0.51
2023-05-05T01:28:52.739Z,0.50
2023-05-05T01:29:52.720Z,0.51
2023-05-05T01:30:52.758Z,0.50
2023-05-05T01:31:52.725Z,0.50
2023-05-05T01:32:52.759Z,0.50
2023-05-05T01:33:52.693Z,0.51
2023-05-05T01:34:52.681Z,0.50
2023-05-05T01:35:52.693Z,0.50
2023-05-05T01:36:52.686Z,0.51
2023-05-05T01:37:52.684Z,0.51
2023-05-05T01:38:52.656Z,0.51
2023-05-05T01:39:52.646Z,0.51
2023-05-05T01:40:52.661Z,0.51
2023-05-05T01:41:52.632Z,0.52
2023-05-05T01:42:52.629Z,0.51
2023-05-05T01:43:52.624Z,0.51
2023-05-05T01:44:52.616Z,0.52
2023-05-05T01:45:52.629Z,0.51
2023-05-05T01:46:52.619Z,0.51
2023-05-05T01:47:52.674Z,0.50
2023-05-05T01:48:52.583Z,0.50
2023-05-05T01:49:52.617Z,0.51
2023-05-05T01:50:52.614Z,0.51
2023-05-05T01:51:52.560Z,0.51
2023-05-05T01:52:52.548Z,0.51
2023-05-05T01:53:52.548Z,0.51
2023-05-05T01:54:52.533Z,0.51
2023-05-05T01:55:52.527Z,0.50
2023-05-05T01:56:52.516Z,0.51
2023-05-05T01:57:52.517Z,0.51
2023-05-05T01:58:52.505Z,0.51
2023-05-05T01:59:52.508Z,0.51
2023-05-05T02:00:52.498Z,0.52
2023-05-05T02:01:52.481Z,0.51
2023-05-05T02:02:52.568Z,0.51
2023-05-05T02:03:52.470Z,0.51
2023-05-05T02:04:52.469Z,0.51
2023-05-05T02:05:52.457Z,0.51
2023-05-05T02:06:52.485Z,0.50
2023-05-05T02:07:52.441Z,0.51
2023-05-05T02:08:52.432Z,0.52
2023-05-05T02:09:52.428Z,0.51
2023-05-05T02:10:52.461Z,0.50
2023-05-05T02:11:52.420Z,0.51
2023-05-05T02:12:52.437Z,0.51
2023-05-05T02:13:52.442Z,0.50
2023-05-05T02:14:52.400Z,0.51
2023-05-05T02:15:52.416Z,0.51
2023-05-05T02:16:52.391Z,0.51
2023-05-05T02:17:52.413Z,0.52
2023-05-05T02:18:52.394Z,0.51
2023-05-05T02:19:52.375Z,0.51
2023-05-05T02:20:52.359Z,0.51
2023-05-05T02:21:52.350Z,0.51
2023-05-05T02:22:52.341Z,0.50
2023-05-05T02:23:52.342Z,0.51
2023-05-05T02:24:52.330Z,0.51
2023-05-05T02:25:52.334Z,0.51
2023-05-05T02:26:52.330Z,0.50
2023-05-05T02:27:52.313Z,0.50
2023-05-05T02:28:52.303Z,0.50
2023-05-05T02:29:52.290Z,0.51
2023-05-05T02:30:52.287Z,0.52
2023-05-05T02:31:52.519Z,0.52
2023-05-05T02:32:52.333Z,0.52
2023-05-05T02:33:52.271Z,0.50
2023-05-05T02:34:52.286Z,0.51
2023-05-05T02:35:52.261Z,0.51
2023-05-05T02:36:52.245Z,0.52
2023-05-05T02:37:52.235Z,0.51
2023-05-05T02:38:52.229Z,0.50
2023-05-05T02:39:52.221Z,0.50
2023-05-05T02:40:52.245Z,0.51
2023-05-05T02:41:52.211Z,0.50
2023-05-05T02:42:52.226Z,0.52
2023-05-05T02:43:52.203Z,0.51
2023-05-05T02:44:52.186Z,0.50
2023-05-05T02:45:52.198Z,0.51
2023-05-05T02:46:52.273Z,0.51
2023-05-05T02:47:52.208Z,0.50
2023-05-05T02:48:52.164Z,0.51
2023-05-05T02:49:52.155Z,0.51
2023-05-05T02:50:52.183Z,0.52
2023-05-05T02:51:52.139Z,0.51
2023-05-05T02:52:52.137Z,0.50
2023-05-05T02:53:52.126Z,0.51
2023-05-05T02:54:52.121Z,0.52
2023-05-05T02:55:52.120Z,0.50
2023-05-05T02:56:52.107Z,0.50
2023-05-05T02:57:52.097Z,0.50
2023-05-05T02:58:52.094Z,0.51
2023-05-05T02:59:52.081Z,0.51
2023-05-05T03:00:52.081Z,0.51
2023-05-05T03:01:52.160Z,0.51
2023-05-05T03:02:52.128Z,0.51
2023-05-05T03:03:52.189Z,0.51
2023-05-05T03:04:52.041Z,0.51
2023-05-05T03:05:52.043Z,0.50
2023-05-05T03:06:52.084Z,0.50
2023-05-05T03:07:52.022Z,0.51
2023-05-05T03:08:52.030Z,0.50
2023-05-05T03:09:52.016Z,0.50
2023-05-05T03:10:52.012Z,0.52
2023-05-05T03:11:52.046Z,0.51
2023-05-05T03:12:52.006Z,0.50
2023-05-05T03:13:51.986Z,0.51
2023-05-05T03:14:51.975Z,0.52
2023-05-05T03:15:51.977Z,0.51
2023-05-05T03:16:52.042Z,0.52
2023-05-05T03:17:52.005Z,0.51
2023-05-05T03:18:51.958Z,0.51
2023-05-05T03:19:51.957Z,0.51
2023-05-05T03:20:51.938Z,0.51
2023-05-05T03:21:51.939Z,0.51
2023-05-05T03:22:51.944Z,0.51
2023-05-05T03:23:51.917Z,0.51
2023-05-05T03:24:51.919Z,0.51
2023-05-05T03:25:51.949Z,0.50
2023-05-05T03:26:51.906Z,0.51
2023-05-05T03:27:51.891Z,0.52
2023-05-05T03:28:51.878Z,0.51
2023-05-05T03:29:51.866Z,0.51
2023-05-05T03:30:51.857Z,0.50
2023-05-05T03:31:51.898Z,0.52
2023-05-05T03:32:51.881Z,0.51
2023-05-05T03:33:51.840Z,0.51
2023-05-05T03:34:51.836Z,0.50
2023-05-05T03:35:51.825Z,0.50
2023-05-05T03:36:51.823Z,0.52
2023-05-05T03:37:51.818Z,0.51
2023-05-05T03:38:51.856Z,0.51
2023-05-05T03:39:51.794Z,0.51
2023-05-05T03:40:51.800Z,0.51
2023-05-05T03:41:51.803Z,0.52
2023-05-05T03:42:51.785Z,0.52
2023-05-05T03:43:51.777Z,0.51
2023-05-05T03:44:51.768Z,0.50
2023-05-05T03:45:51.771Z,0.51
2023-05-05T03:46:51.750Z,0.51
2023-05-05T03:47:51.815Z,0.51
2023-05-05T03:48:51.777Z,0.52
2023-05-05T03:49:51.729Z,0.51
2023-05-05T03:50:51.720Z,0.51
2023-05-05T03:51:51.709Z,0.51
2023-05-05T03:52:51.699Z,0.51
2023-05-05T03:53:51.721Z,0.51
2023-05-05T03:54:51.741Z,0.51
2023-05-05T03:55:51.695Z,0.51
2023-05-05T03:56:51.686Z,0.52
2023-05-05T03:57:51.679Z,0.51
2023-05-05T03:58:51.661Z,0.51
2023-05-05T03:59:51.657Z,0.51
2023-05-05T04:00:51.649Z,0.50
2023-05-05T04:01:51.651Z,0.50
2023-05-05T04:02:51.713Z,0.52
2023-05-05T04:03:51.689Z,0.51
2023-05-05T04:04:51.621Z,0.51
2023-05-05T04:05:51.638Z,0.51
2023-05-05T04:06:51.608Z,0.51
2023-05-05T04:07:51.608Z,0.52
2023-05-05T04:08:51.597Z,0.51
2023-05-05T04:09:51.587Z,0.50
2023-05-05T04:10:51.607Z,0.51
2023-05-05T04:11:51.569Z,0.51
2023-05-05T04:12:51.580Z,0.51
2023-05-05T04:13:51.561Z,0.50
2023-05-05T04:14:51.549Z,0.51
2023-05-05T04:15:51.568Z,0.51
2023-05-05T04:16:51.556Z,0.51
2023-05-05T04:17:51.586Z,0.51
2023-05-05T04:18:51.520Z,0.52
2023-05-05T04:19:51.516Z,0.51
2023-05-05T04:20:51.524Z,0.51
2023-05-05T04:21:51.535Z,0.50
2023-05-05T04:22:52.878Z,0.51
2023-05-05T04:23:51.554Z,0.51
2023-05-05T04:24:51.545Z,0.50
2023-05-05T04:25:51.552Z,0.51
2023-05-05T04:26:51.579Z,0.51
2023-05-05T04:27:51.564Z,0.51
2023-05-05T04:28:51.562Z,0.51
2023-05-05T04:29:51.573Z,0.50
2023-05-05T04:30:51.622Z,0.51
2023-05-05T04:31:51.590Z,0.52
2023-05-05T04:32:51.628Z,0.51
2023-05-05T04:33:51.607Z,0.53
2023-05-05T04:34:51.611Z,0.52
2023-05-05T04:35:51.618Z,0.51
2023-05-05T04:36:51.617Z,0.50
2023-05-05T04:37:51.618Z,0.51
2023-05-05T04:38:51.722Z,0.51
2023-05-05T04:39:51.631Z,0.51
2023-05-05T04:40:51.639Z,0.52
2023-05-05T04:41:51.654Z,0.51
2023-05-05T04:42:51.693Z,0.51
2023-05-05T04:43:51.671Z,0.51
2023-05-05T04:44:51.676Z,0.51
2023-05-05T04:45:51.692Z,0.50
2023-05-05T04:46:51.797Z,0.51
2023-05-05T04:47:51.705Z,0.51
2023-05-05T04:48:51.736Z,0.51
2023-05-05T04:49:51.716Z,0.51
2023-05-05T04:50:51.719Z,0.51
2023-05-05T04:51:51.731Z,0.51
2023-05-05T04:52:52.762Z,0.50
2023-05-05T04:53:51.741Z,0.51
2023-05-05T04:54:51.744Z,0.51
2023-05-05T04:55:51.752Z,0.50
2023-05-05T04:56:51.740Z,0.51
2023-05-05T04:57:51.766Z,0.51
2023-05-05T04:58:51.773Z,0.51
2023-05-05T04:59:51.749Z,0.50
2023-05-05T05:00:51.752Z,0.51
2023-05-05T05:01:51.787Z,0.52
2023-05-05T05:02:51.809Z,0.51
2023-05-05T05:03:51.877Z,0.51
2023-05-05T05:04:51.774Z,0.51
2023-05-05T05:05:51.789Z,0.51
2023-05-05T05:06:51.792Z,0.51
2023-05-05T05:07:51.808Z,0.51
2023-05-05T05:08:51.813Z,0.51
2023-05-05T05:09:51.803Z,0.51
2023-05-05T05:10:51.800Z,0.51
2023-05-05T05:11:51.808Z,0.52
2023-05-05T05:12:52.258Z,0.52
2023-05-05T05:13:51.825Z,0.53
2023-05-05T05:14:51.856Z,0.52
2023-05-05T05:15:51.826Z,0.52
2023-05-05T05:16:51.919Z,0.51
2023-05-05T05:17:51.882Z,0.51
2023-05-05T05:18:51.836Z,0.51
2023-05-05T05:19:51.820Z,0.51
2023-05-05T05:20:51.826Z,0.52
2023-05-05T05:21:52.218Z,0.52
2023-05-05T05:22:51.841Z,0.50
2023-05-05T05:23:52.208Z,0.51
2023-05-05T05:24:51.887Z,0.52
2023-05-05T05:25:51.863Z,0.53
2023-05-05T05:26:51.856Z,0.51
2023-05-05T05:28:02.194Z,0.51
2023-05-05T05:28:52.217Z,0.52
2023-05-05T05:29:51.861Z,0.52
2023-05-05T05:30:51.877Z,0.52
2023-05-05T05:31:51.862Z,0.53
2023-05-05T05:32:51.853Z,0.52
2023-05-05T05:33:51.818Z,0.52
2023-05-05T05:34:51.802Z,0.52
2023-05-05T05:35:51.796Z,0.53
2023-05-05T05:36:51.781Z,0.54
2023-05-05T05:37:51.818Z,0.55
2023-05-05T05:38:51.771Z,0.56
2023-05-05T05:39:51.767Z,0.56
2023-05-05T05:40:51.769Z,0.57
2023-05-05T05:41:52.222Z,0.58
2023-05-05T05:42:51.737Z,0.59
2023-05-05T05:43:51.734Z,0.59
2023-05-05T05:44:51.728Z,0.63
2023-05-05T05:45:51.823Z,0.66
2023-05-05T05:46:51.747Z,0.66
2023-05-05T05:47:51.738Z,0.66
2023-05-05T05:48:51.708Z,0.68
2023-05-05T05:49:51.686Z,0.68
2023-05-05T05:50:52.079Z,0.72
2023-05-05T05:51:52.658Z,0.71
2023-05-05T05:52:50.764Z,0.75
2023-05-05T05:53:51.658Z,0.77
2023-05-05T05:54:51.651Z,0.78
2023-05-05T05:55:51.649Z,0.76
2023-05-05T05:56:51.724Z,0.76
2023-05-05T05:57:51.952Z,0.76
2023-05-05T05:58:51.618Z,0.80
2023-05-05T05:59:51.629Z,0.80
2023-05-05T06:00:59.037Z,0.81
2023-05-05T06:01:51.724Z,0.82
2023-05-05T06:04:07.386Z,0.82
2023-05-05T06:04:59.001Z,0.82
2023-05-05T06:05:54.772Z,0.82
2023-05-05T06:06:51.571Z,0.82
2023-05-05T06:07:52.548Z,0.85
2023-05-05T06:08:51.731Z,0.89
2023-05-05T06:10:22.638Z,0.98
2023-05-05T06:10:54.808Z,0.82
2023-05-05T06:11:51.736Z,0.83
2023-05-05T06:12:58.991Z,0.86
2023-05-05T06:13:54.783Z,0.83
2023-05-05T06:14:51.521Z,0.83
2023-05-05T06:17:07.137Z,0.83
2023-05-05T06:17:58.919Z,0.83
2023-05-05T06:18:52.477Z,0.83
2023-05-05T06:19:52.437Z,0.83
2023-05-05T06:20:51.513Z,0.83
2023-05-05T06:21:51.473Z,0.89
2023-05-05T06:22:51.463Z,1.01
2023-05-05T06:23:51.732Z,1.20
2023-05-05T06:24:51.439Z,1.51
2023-05-05T06:25:51.464Z,1.56
2023-05-05T06:26:51.765Z,1.56
2023-05-05T06:27:51.439Z,1.59
2023-05-05T06:28:51.505Z,1.59
2023-05-05T06:29:51.428Z,1.62
2023-05-05T06:30:51.409Z,1.66
2023-05-05T06:31:51.457Z,1.64
2023-05-05T06:32:51.451Z,1.68
2023-05-05T06:33:51.381Z,1.70
2023-05-05T06:34:51.401Z,1.74
2023-05-05T06:35:51.454Z,1.76
2023-05-05T06:36:54.608Z,1.79
2023-05-05T06:37:51.382Z,1.79
2023-05-05T06:38:51.773Z,1.81
2023-05-05T06:39:51.383Z,1.84
2023-05-05T06:40:51.356Z,1.89
2023-05-05T06:41:52.283Z,1.96
2023-05-05T06:42:51.331Z,2.02
2023-05-05T06:43:51.770Z,2.03
2023-05-05T06:44:51.305Z,2.08
2023-05-05T06:45:51.518Z,2.12
2023-05-05T06:46:58.762Z,2.13
2023-05-05T06:47:51.386Z,2.14
2023-05-05T06:48:51.750Z,2.16
2023-05-05T06:49:51.266Z,2.21
2023-05-05T06:50:51.260Z,2.25
2023-05-05T06:51:51.353Z,2.34
2023-05-05T06:52:51.253Z,2.41
2023-05-05T12:17:38.055Z,0.50
2023-05-05T12:18:39.008Z,0.50
2023-05-05T12:19:39.002Z,0.50
2023-05-05T12:20:38.990Z,0.50
2023-05-05T12:21:38.987Z,0.50
2023-05-05T12:22:39.004Z,0.50
2023-05-05T12:23:38.980Z,0.51
2023-05-05T12:24:38.957Z,0.46
2023-05-05T12:25:39.014Z,0.54
2023-05-05T12:26:38.949Z,0.73
2023-05-05T12:27:39.191Z,0.70
2023-05-05T12:28:38.926Z,0.65
2023-05-05T12:29:38.920Z,0.64
2023-05-05T12:30:38.957Z,0.44
2023-05-05T12:31:38.936Z,0.58
2023-05-05T12:32:38.940Z,0.50
2023-05-05T12:33:38.989Z,0.50
2023-05-05T12:34:38.909Z,0.61
2023-05-05T12:35:38.879Z,0.66
2023-05-05T12:36:38.894Z,0.52
2023-05-05T12:37:38.865Z,0.50
2023-05-05T12:38:38.860Z,0.58
2023-05-05T12:39:38.853Z,0.53
2023-05-05T12:40:38.844Z,0.58
2023-05-05T12:41:38.836Z,0.63
2023-05-05T12:42:38.823Z,0.71
2023-05-05T12:43:38.902Z,0.83
2023-05-05T12:44:38.804Z,0.60
2023-05-05T12:45:38.803Z,0.51
2023-05-05T12:46:39.030Z,0.55
2023-05-05T12:47:38.805Z,0.64
2023-05-05T12:48:39.204Z,0.75
2023-05-05T12:49:42.081Z,0.67
2023-05-05T12:50:39.216Z,0.67
2023-05-05T12:51:38.767Z,0.57
2023-05-05T12:52:38.757Z,0.65
2023-05-05T12:53:38.748Z,0.72
2023-05-05T12:54:38.743Z,0.75
2023-05-05T12:55:39.212Z,0.83
2023-05-05T12:56:38.753Z,0.88
2023-05-05T12:57:38.726Z,0.88
2023-05-05T12:58:38.712Z,0.80
2023-05-05T12:59:38.709Z,0.57
2023-05-05T13:00:38.702Z,0.59
2023-05-05T13:01:38.749Z,0.53
2023-05-05T13:02:38.795Z,0.55
2023-05-05T13:03:38.732Z,0.71
2023-05-05T13:04:38.680Z,0.81
2023-05-05T13:05:38.739Z,0.73
2023-05-05T13:06:38.710Z,0.68
2023-05-05T13:07:38.657Z,0.73
2023-05-05T13:08:38.643Z,0.71
2023-05-05T13:09:38.651Z,0.84
2023-05-05T13:10:38.639Z,0.64
2023-05-05T13:11:38.652Z,0.65
2023-05-05T13:12:38.662Z,0.79
2023-05-05T13:13:38.614Z,0.71
2023-05-05T13:14:38.604Z,0.59
2023-05-05T13:15:38.679Z,0.74
2023-05-05T13:16:38.689Z,0.51
2023-05-05T13:17:38.741Z,0.56
2023-05-05T13:18:38.699Z,0.75
2023-05-05T13:19:38.724Z,0.73
2023-05-05T13:20:38.693Z,0.76
2023-05-05T13:21:38.868Z,1.30
2023-05-05T13:22:38.785Z,1.49
2023-05-05T13:23:38.839Z,1.31
2023-05-05T13:24:50.641Z,1.28
2023-05-05T13:25:39.222Z,1.30
2023-05-05T13:26:39.718Z,1.32
2023-05-05T13:27:38.823Z,1.47
2023-05-05T13:28:38.829Z,1.89
2023-05-05T13:29:38.811Z,2.90
2023-05-05T13:30:38.810Z,3.47
2023-05-05T13:31:38.861Z,4.36
2023-05-05T13:32:38.832Z,4.62
2023-05-05T13:33:38.790Z,5.26
2023-05-05T13:34:38.773Z,6.01
2023-05-05T13:35:38.778Z,6.17
2023-05-05T13:36:38.763Z,5.59
2023-05-05T13:37:38.915Z,4.00
2023-05-05T13:38:38.751Z,2.02
2023-05-05T13:39:38.739Z,2.41
2023-05-05T13:40:38.741Z,2.04
2023-05-05T13:41:38.750Z,1.94
2023-05-05T13:42:38.716Z,1.81
2023-05-05T13:43:38.717Z,1.84
2023-05-05T13:44:38.718Z,1.27
2023-05-05T13:45:41.208Z,1.40
2023-05-05T13:46:38.700Z,1.29
2023-05-05T13:47:38.752Z,1.18
2023-05-05T13:48:38.668Z,0.81
2023-05-05T13:49:38.668Z,0.82
2023-05-05T13:50:38.658Z,0.95
2023-05-05T13:51:38.649Z,0.92
2023-05-05T13:52:38.640Z,0.98
2023-05-05T13:53:38.807Z,1.05
2023-05-05T13:54:38.618Z,0.86
2023-05-05T13:55:38.615Z,0.87
2023-05-05T13:56:38.614Z,0.99
2023-05-05T13:57:38.610Z,0.70
2023-05-05T13:58:38.587Z,0.76
2023-05-05T13:59:38.582Z,0.91
2023-05-05T14:00:39.357Z,0.84
2023-05-05T14:01:38.621Z,0.68
2023-05-05T14:02:38.576Z,0.91
2023-05-05T14:03:38.604Z,0.81
2023-05-05T14:04:38.594Z,0.96
2023-05-05T14:05:38.572Z,0.75
2023-05-05T14:06:38.581Z,0.75
2023-05-05T14:07:38.557Z,0.86
2023-05-05T14:08:38.569Z,1.02
2023-05-05T14:09:39.362Z,0.58
2023-05-05T14:10:38.503Z,0.59
2023-05-05T14:11:38.497Z,0.50
2023-05-05T14:12:38.549Z,0.71
2023-05-05T14:13:38.759Z,0.61
2023-05-05T14:14:38.464Z,0.66
2023-05-05T14:15:38.465Z,0.54
2023-05-05T14:16:38.514Z,0.66
2023-05-05T14:17:38.522Z,0.85
2023-05-05T14:18:38.437Z,0.69
2023-05-05T14:19:38.439Z,1.77
2023-05-05T14:20:38.428Z,2.66
2023-05-05T14:21:38.426Z,3.13
2023-05-05T14:22:38.405Z,4.29
2023-05-05T14:23:38.483Z,5.63
2023-05-05T14:24:38.500Z,7.04
2023-05-05T14:25:38.593Z,6.17
2023-05-05T14:26:38.611Z,3.10
2023-05-05T14:27:38.594Z,2.96
2023-05-05T14:28:38.767Z,3.67
2023-05-05T14:29:38.608Z,3.41
2023-05-05T14:30:38.610Z,3.98
2023-05-05T14:31:38.681Z,3.15
2023-05-05T14:32:38.704Z,3.08
2023-05-05T14:33:38.718Z,1.85
2023-05-05T14:34:39.737Z,2.02
2023-05-05T14:35:38.720Z,1.34
2023-05-05T14:36:38.734Z,1.22
2023-05-05T14:37:38.740Z,1.22
2023-05-05T14:38:38.758Z,0.96
2023-05-05T14:39:38.795Z,0.71
2023-05-05T14:40:38.804Z,0.63
2023-05-05T14:41:38.978Z,0.70
2023-05-05T14:42:38.935Z,0.74
2023-05-05T14:43:38.994Z,0.93
2023-05-05T14:44:39.036Z,0.90
2023-05-05T14:45:39.113Z,0.66
2023-05-05T14:46:39.101Z,0.69
2023-05-05T14:47:39.154Z,0.54
2023-05-05T14:48:39.165Z,0.79
2023-05-05T14:49:39.202Z,0.66
2023-05-05T14:50:39.246Z,0.86
2023-05-05T14:51:39.285Z,0.58
2023-05-05T14:52:39.342Z,0.63
2023-05-05T14:53:39.472Z,0.46
2023-05-05T14:54:39.483Z,0.52
2023-05-05T14:55:39.486Z,0.46
2023-05-05T14:56:39.493Z,0.51
2023-05-05T14:57:39.710Z,0.61
2023-05-05T14:58:39.521Z,0.58
2023-05-05T14:59:39.625Z,0.59
2023-05-05T15:00:39.637Z,0.57
2023-05-05T15:01:39.800Z,0.53
2023-05-05T15:02:39.804Z,0.57
2023-05-05T15:03:39.903Z,0.68
2023-05-05T15:04:40.283Z,0.72
2023-05-05T15:05:39.879Z,0.83
2023-05-05T15:06:39.865Z,0.91
2023-05-05T15:07:39.915Z,0.77
2023-05-05T15:08:39.961Z,0.78
2023-05-05T15:09:39.990Z,0.61
2023-05-05T15:10:40.010Z,0.57
2023-05-05T15:11:40.008Z,0.68
2023-05-05T15:12:40.058Z,0.90
2023-05-05T15:13:40.336Z,0.91
2023-05-05T15:14:40.116Z,1.03
2023-05-05T15:15:40.183Z,1.03
2023-05-05T15:16:40.386Z,1.13
2023-05-05T15:17:40.258Z,0.98
2023-05-05T15:18:40.292Z,0.99
2023-05-05T15:19:40.348Z,0.96
2023-05-05T15:20:40.426Z,0.93
2023-05-05T15:21:40.462Z,1.01
2023-05-05T15:22:40.503Z,1.00
2023-05-05T15:23:40.538Z,0.92
2023-05-05T15:24:40.620Z,0.80
2023-05-05T15:25:40.646Z,0.86
2023-05-05T15:26:40.682Z,0.77
2023-05-05T15:27:40.760Z,0.73
2023-05-05T15:28:40.809Z,0.80
2023-05-05T15:29:40.901Z,0.82
2023-05-05T15:30:40.930Z,0.79
2023-05-05T15:31:40.990Z,0.73
2023-05-05T15:32:41.076Z,0.67
2023-05-05T15:33:41.034Z,0.83
2023-05-05T15:34:41.095Z,0.82
2023-05-05T15:35:41.146Z,0.75
2023-05-05T15:36:41.193Z,0.86
2023-05-05T15:37:41.247Z,0.70
2023-05-05T15:38:41.258Z,0.76
2023-05-05T15:39:41.253Z,0.81
2023-05-05T15:40:41.297Z,1.31
2023-05-05T15:41:41.358Z,1.84
2023-05-05T15:42:41.418Z,1.31
2023-05-05T15:43:41.459Z,1.37
2023-05-05T15:44:41.508Z,1.37
2023-05-05T15:45:41.685Z,1.37
2023-05-05T15:46:41.656Z,1.30
2023-05-05T15:47:41.681Z,1.27
2023-05-05T15:48:41.693Z,1.03
2023-05-05T15:49:41.749Z,1.83
2023-05-05T15:50:41.802Z,3.38
2023-05-05T15:51:41.850Z,4.50
2023-05-05T15:52:41.896Z,7.08
2023-05-05T15:53:41.932Z,7.98
2023-05-05T15:54:41.997Z,8.20
2023-05-05T15:55:42.041Z,10.14
2023-05-05T15:56:42.102Z,8.88
2023-05-05T15:57:42.156Z,10.52
2023-05-05T15:58:42.245Z,5.41
2023-05-05T15:59:42.284Z,8.74
2023-05-05T16:00:42.337Z,10.80
2023-05-05T16:01:42.498Z,11.55
2023-05-05T16:02:42.522Z,11.50
2023-05-05T16:03:42.578Z,11.69
2023-05-05T16:04:42.604Z,11.92
2023-05-05T16:05:42.645Z,11.27
2023-05-05T16:06:42.671Z,11.52
2023-05-05T16:07:42.714Z,10.86
2023-05-05T16:08:42.744Z,11.16
2023-05-05T16:09:42.749Z,11.01
2023-05-05T16:10:42.778Z,10.14
2023-05-05T16:11:42.838Z,10.80
2023-05-05T16:12:42.928Z,8.60
2023-05-05T16:13:42.856Z,8.24
2023-05-05T16:14:42.875Z,10.13
2023-05-05T16:15:42.895Z,10.44
2023-05-05T16:16:43.031Z,10.24
2023-05-05T16:17:43.011Z,10.96
2023-05-05T16:18:42.958Z,8.51
2023-05-05T16:19:43.000Z,3.95
2023-05-05T16:20:43.014Z,2.86
2023-05-05T16:21:43.064Z,2.54
2023-05-05T16:22:43.102Z,2.49
2023-05-05T16:23:43.165Z,2.08
2023-05-05T16:24:44.368Z,1.60
2023-05-05T16:25:43.285Z,1.60
2023-05-05T16:26:43.312Z,1.35
2023-05-05T16:27:43.308Z,1.70
2023-05-05T16:28:43.387Z,1.45
2023-05-05T16:29:43.431Z,1.43
2023-05-05T16:30:43.474Z,1.16
2023-05-05T16:31:43.528Z,1.17
2023-05-05T16:32:43.529Z,1.22
2023-05-05T16:33:43.545Z,1.13
2023-05-05T16:34:43.503Z,1.11
2023-05-05T16:35:43.517Z,1.13
2023-05-05T16:36:44.445Z,1.09
2023-05-05T16:37:43.516Z,0.97
2023-05-05T16:38:43.513Z,1.41
2023-05-05T16:39:43.571Z,2.15
2023-05-05T16:40:43.607Z,2.30
2023-05-05T16:41:43.621Z,2.53
2023-05-05T16:42:44.673Z,2.65
2023-05-05T16:43:43.722Z,2.88
2023-05-05T16:44:43.748Z,3.02
2023-05-05T16:45:43.796Z,3.43
2023-05-05T16:46:44.009Z,3.71
2023-05-05T16:47:43.895Z,4.00
2023-05-05T16:48:43.894Z,4.41
2023-05-05T16:49:44.020Z,4.96
2023-05-05T16:50:43.932Z,5.09
2023-05-05T16:51:43.950Z,5.50
2023-05-05T16:52:43.960Z,6.11
2023-05-05T16:53:43.990Z,6.34
2023-05-05T16:54:44.005Z,6.41
2023-05-05T16:55:44.020Z,7.05
2023-05-05T16:56:44.029Z,7.33
2023-05-05T16:57:44.043Z,8.10
2023-05-05T16:58:44.062Z,8.85
2023-05-05T16:59:44.072Z,8.94
2023-05-05T17:00:44.085Z,9.74
2023-05-05T17:01:44.110Z,10.49
2023-05-05T17:02:44.156Z,11.27
2023-05-05T17:03:44.138Z,12.30
2023-05-05T17:04:44.155Z,15.96
2023-05-05T17:05:44.244Z,15.08
2023-05-05T17:06:44.141Z,16.06
2023-05-05T17:07:44.137Z,16.40
2023-05-05T17:08:44.139Z,17.37
2023-05-05T17:09:44.798Z,17.57
2023-05-05T17:10:44.155Z,18.15
2023-05-05T17:11:44.165Z,18.47
2023-05-05T17:12:44.213Z,18.61
2023-05-05T17:13:44.176Z,18.92
2023-05-05T17:14:44.183Z,18.65
2023-05-05T17:15:44.204Z,19.60
2023-05-05T17:16:44.267Z,20.72
2023-05-05T17:17:44.200Z,22.08
2023-05-05T17:18:44.214Z,21.72
2023-05-05T17:19:44.203Z,22.83
2023-05-05T17:20:44.213Z,22.46
2023-05-05T17:21:44.310Z,23.45
2023-05-05T17:22:44.224Z,24.10
2023-05-05T17:23:44.237Z,23.58
2023-05-05T17:24:44.260Z,27.05
2023-05-05T17:25:44.281Z,28.02
2023-05-05T17:26:44.295Z,30.00
2023-05-05T17:27:44.320Z,31.51
2023-05-05T17:28:44.335Z,23.61
2023-05-05T17:29:44.374Z,27.78
2023-05-05T17:30:44.421Z,26.41
2023-05-05T17:31:44.469Z,27.35
2023-05-05T17:32:44.494Z,27.35
2023-05-05T17:33:44.505Z,27.18
2023-05-05T17:34:44.550Z,27.03
2023-05-05T17:35:44.580Z,25.38
2023-05-05T17:36:44.622Z,22.56
2023-05-05T17:37:44.753Z,20.05
2023-05-05T17:38:44.707Z,19.30
2023-05-05T17:39:44.774Z,20.38
2023-05-05T17:40:45.459Z,22.74
2023-05-05T17:41:45.647Z,23.66
2023-05-05T17:42:45.563Z,22.55
2023-05-05T17:43:45.592Z,21.82
2023-05-05T17:44:47.011Z,21.71
2023-05-05T17:45:45.131Z,22.08
2023-05-05T17:46:45.699Z,21.91
2023-05-05T17:47:45.317Z,22.25
2023-05-05T17:48:44.977Z,21.52
2023-05-05T17:49:44.952Z,21.60
2023-05-05T17:50:44.944Z,21.78
2023-05-05T17:51:44.931Z,21.83
2023-05-05T17:52:44.924Z,22.35
2023-05-05T17:53:45.080Z,21.39
2023-05-05T17:54:44.914Z,21.35
2023-05-05T17:55:44.909Z,21.97
2023-05-05T17:56:44.899Z,22.36
2023-05-05T17:57:44.891Z,22.03
2023-05-05T17:58:44.869Z,22.05
2023-05-05T17:59:44.871Z,22.14
2023-05-05T18:00:44.866Z,21.40
2023-05-05T18:01:44.913Z,22.61
2023-05-05T18:02:44.877Z,22.32
2023-05-05T18:03:44.885Z,22.58
2023-05-05T18:04:44.837Z,22.01
2023-05-05T18:05:44.835Z,22.53
2023-05-05T18:06:44.834Z,23.56
2023-05-05T18:07:44.812Z,24.28
2023-05-05T18:08:44.824Z,24.77
2023-05-05T18:09:44.919Z,24.95
2023-05-05T18:10:44.793Z,25.14
2023-05-05T18:11:44.783Z,26.19
2023-05-05T18:12:44.813Z,26.25
2023-05-05T18:13:44.784Z,25.60
2023-05-05T18:14:44.764Z,26.98
2023-05-05T18:15:44.790Z,26.36
2023-05-05T18:16:44.761Z,27.29
2023-05-05T18:17:44.779Z,26.63
2023-05-05T18:18:44.818Z,26.71
2023-05-05T18:19:46.592Z,26.62
2023-05-05T18:20:44.773Z,26.66
2023-05-05T18:21:44.751Z,26.68
2023-05-05T18:22:44.742Z,25.99
2023-05-05T18:23:44.734Z,26.96
2023-05-05T18:24:44.739Z,13.76
2023-05-05T18:25:44.813Z,9.11
2023-05-05T18:26:44.707Z,6.55
2023-05-05T18:27:44.694Z,4.88
2023-05-05T18:28:44.698Z,4.22
2023-05-05T18:29:44.696Z,2.73
2023-05-05T18:30:44.691Z,2.30
2023-05-05T18:31:44.752Z,2.13
2023-05-05T18:32:44.686Z,1.63
2023-05-05T18:33:46.874Z,3.29
2023-05-05T18:34:44.652Z,3.31
2023-05-05T18:35:44.639Z,3.45
2023-05-05T18:36:44.643Z,3.82
2023-05-05T18:37:44.625Z,4.41
2023-05-05T18:38:44.628Z,5.37
2023-05-05T18:39:44.622Z,6.10
2023-05-05T18:40:44.623Z,6.49
2023-05-05T18:41:44.800Z,7.01